Time;durP1;ratioP1;P1;durP2;ratioP2;P2;SDS_P1;SDS_P2;PMS_P1;PMS_P2;Temp;Humidity;BMP_temperature;BMP_pressure;BME280_temperature;BME280_humidity;BME280_pressure;Samples;Min_cycle;Max_cycle;Signal;HPM_P1;HPM_P2
2021/03/10 00:00:24;;;;;;;12.73;10.13;;;6.60;99.90;;;;;;5087892;28;20230;-76
2021/03/10 00:02:50;;;;;;;16.05;11.90;;;6.60;99.90;;;;;;5084154;28;20255;-76
2021/03/10 00:05:17;;;;;;;15.85;10.80;;;6.60;99.90;;;;;;5089365;28;20217;-76
2021/03/10 00:07:45;;;;;;;15.75;10.95;;;6.70;99.90;;;;;;5085092;28;20200;-76
2021/03/10 00:10:13;;;;;;;14.32;10.32;;;6.70;99.90;;;;;;5096219;28;20211;-76
2021/03/10 00:12:39;;;;;;;12.20;9.60;;;6.60;99.90;;;;;;5094953;28;20660;-76
2021/03/10 00:15:08;;;;;;;12.10;8.95;;;6.60;99.90;;;;;;5093767;28;20266;-76
2021/03/10 00:17:36;;;;;;;16.67;10.50;;;6.60;99.90;;;;;;5095402;28;20233;-75
2021/03/10 00:20:04;;;;;;;14.70;9.80;;;6.60;99.90;;;;;;5098793;28;20204;-75
2021/03/10 00:22:30;;;;;;;16.17;10.02;;;6.60;99.90;;;;;;5094622;28;20200;-75
2021/03/10 00:24:57;;;;;;;13.32;10.25;;;6.50;99.90;;;;;;5089014;28;20281;-75
2021/03/10 00:27:26;;;;;;;18.63;10.70;;;6.40;99.90;;;;;;5092964;28;20200;-75
2021/03/10 00:29:54;;;;;;;13.75;9.18;;;6.40;99.90;;;;;;5101059;28;20235;-75
2021/03/10 00:32:26;;;;;;;13.23;9.68;;;6.40;99.90;;;;;;5091332;28;20211;-75
2021/03/10 00:34:54;;;;;;;15.15;10.13;;;6.40;99.90;;;;;;5093390;28;20214;-75
2021/03/10 00:37:22;;;;;;;14.82;10.70;;;6.40;99.90;;;;;;5098211;28;20204;-75
2021/03/10 00:39:50;;;;;;;18.35;11.85;;;6.40;99.90;;;;;;5088349;28;20207;-75
2021/03/10 00:42:17;;;;;;;23.77;12.85;;;6.40;99.90;;;;;;5087199;28;20200;-75
2021/03/10 00:44:43;;;;;;;28.85;12.30;;;6.40;99.90;;;;;;5094845;28;20231;-75
2021/03/10 00:47:10;;;;;;;25.20;13.60;;;6.30;99.90;;;;;;5091068;28;20888;-75
2021/03/10 00:49:37;;;;;;;20.80;12.82;;;6.20;99.90;;;;;;5097005;28;20200;-75
2021/03/10 00:52:06;;;;;;;19.70;11.38;;;6.20;99.90;;;;;;5102279;28;20230;-75
2021/03/10 00:54:32;;;;;;;18.85;12.75;;;6.30;99.90;;;;;;5098427;28;20215;-75
2021/03/10 00:56:59;;;;;;;19.90;12.82;;;6.30;99.90;;;;;;5089010;28;20231;-75
2021/03/10 00:59:25;;;;;;;19.90;14.02;;;6.30;99.90;;;;;;5104016;28;20204;-75
2021/03/10 01:01:55;;;;;;;21.08;11.85;;;6.20;99.90;;;;;;5091975;28;20207;-75
2021/03/10 01:04:22;;;;;;;16.92;11.13;;;6.20;99.90;;;;;;5091838;28;20247;-75
2021/03/10 01:06:48;;;;;;;18.63;11.77;;;6.10;99.90;;;;;;5090595;28;20200;-74
2021/03/10 01:09:17;;;;;;;17.02;11.52;;;6.00;99.90;;;;;;5102714;28;20200;-75
2021/03/10 01:11:45;;;;;;;18.15;11.63;;;6.00;99.90;;;;;;5093875;28;20205;-75
2021/03/10 01:14:11;;;;;;;15.50;10.27;;;5.90;99.90;;;;;;5087963;28;20205;-74
2021/03/10 01:16:38;;;;;;;14.48;10.63;;;5.80;99.90;;;;;;5099146;28;20216;-75
2021/03/10 01:19:05;;;;;;;17.30;11.23;;;5.80;99.90;;;;;;5103684;28;20203;-75
2021/03/10 01:21:32;;;;;;;19.92;12.65;;;5.80;99.90;;;;;;5099444;28;20214;-75
2021/03/10 01:23:58;;;;;;;18.20;11.40;;;5.80;99.90;;;;;;5084632;28;20203;-75
2021/03/10 01:26:26;;;;;;;22.85;12.20;;;5.80;99.90;;;;;;5097953;28;20200;-74
2021/03/10 01:28:52;;;;;;;18.20;12.32;;;5.80;99.90;;;;;;5096212;28;20207;-75
2021/03/10 01:31:19;;;;;;;23.92;12.75;;;5.80;99.90;;;;;;5100588;28;20208;-75
2021/03/10 01:33:45;;;;;;;19.42;12.30;;;5.90;99.90;;;;;;5097313;28;20204;-74
2021/03/10 01:36:12;;;;;;;19.88;12.05;;;5.80;99.90;;;;;;5090479;28;20196;-74
2021/03/10 01:38:38;;;;;;;16.92;12.32;;;5.90;99.90;;;;;;5098149;28;20195;-75
2021/03/10 01:41:05;;;;;;;20.60;12.05;;;5.90;99.90;;;;;;5092765;28;20301;-75
2021/03/10 01:43:34;;;;;;;16.92;11.27;;;5.90;99.90;;;;;;5079088;28;20201;-75
2021/03/10 01:46:00;;;;;;;16.33;11.85;;;5.80;99.90;;;;;;5096668;28;20232;-75
2021/03/10 01:48:27;;;;;;;19.75;11.38;;;5.80;99.90;;;;;;5086780;28;20248;-75
2021/03/10 01:50:54;;;;;;;23.83;11.13;;;5.80;99.90;;;;;;5095455;28;20313;-75
2021/03/10 01:53:21;;;;;;;18.48;11.05;;;5.80;99.90;;;;;;5102444;28;20664;-75
2021/03/10 01:55:48;;;;;;;22.15;12.30;;;5.80;99.90;;;;;;5094342;28;20208;-74
2021/03/10 01:58:15;;;;;;;19.75;12.70;;;5.80;99.90;;;;;;5094772;28;20196;-74
2021/03/10 02:00:42;;;;;;;19.50;11.38;;;5.80;99.90;;;;;;5085512;28;20197;-75
2021/03/10 02:03:09;;;;;;;28.70;14.50;;;5.70;99.90;;;;;;5095699;28;20233;-75
2021/03/10 02:05:35;;;;;;;16.15;12.32;;;5.70;99.90;;;;;;5100725;28;20242;-75
2021/03/10 02:08:19;;;;;;;17.27;11.82;;;5.70;99.90;;;;;;5086472;28;20205;-75
2021/03/10 02:10:56;;;;;;;23.25;11.88;;;5.70;99.90;;;;;;5080108;28;20199;-75
2021/03/10 02:13:31;;;;;;;19.15;10.80;;;5.70;99.90;;;;;;5090185;28;20204;-75
2021/03/10 02:16:06;;;;;;;22.58;11.77;;;5.70;99.90;;;;;;5098617;28;20196;-75
2021/03/10 02:18:37;;;;;;;17.95;12.60;;;5.60;99.90;;;;;;5097155;28;20196;-75
2021/03/10 02:21:14;;;;;;;18.85;11.52;;;5.60;99.90;;;;;;5094335;28;20208;-75
2021/03/10 02:23:56;;;;;;;24.98;12.43;;;5.60;99.90;;;;;;5089440;28;20196;-75
2021/03/10 02:26:59;;;;;;;18.00;11.70;;;5.60;99.90;;;;;;5085005;28;20212;-75
2021/03/10 02:29:28;;;;;;;19.50;11.35;;;5.60;99.90;;;;;;5088995;28;20204;-75
2021/03/10 02:31:57;;;;;;;21.70;12.50;;;5.50;99.90;;;;;;5090406;28;20204;-75
2021/03/10 02:34:24;;;;;;;21.13;13.35;;;5.50;99.90;;;;;;5088828;28;20200;-74
2021/03/10 02:36:53;;;;;;;20.60;11.73;;;5.50;99.90;;;;;;5089274;28;20222;-75
2021/03/10 02:39:20;;;;;;;20.20;12.48;;;5.50;99.90;;;;;;5091965;28;20215;-75
2021/03/10 02:41:47;;;;;;;22.15;12.52;;;5.50;99.90;;;;;;5090448;28;20584;-75
2021/03/10 02:44:15;;;;;;;20.85;11.65;;;5.50;99.90;;;;;;5080659;28;20224;-75
2021/03/10 02:46:43;;;;;;;19.35;13.30;;;5.50;99.90;;;;;;5076373;28;20230;-75
2021/03/10 02:49:11;;;;;;;18.77;12.15;;;5.60;99.90;;;;;;5071185;28;20220;-75
2021/03/10 02:51:39;;;;;;;25.27;12.70;;;5.60;99.90;;;;;;5075130;28;20205;-75
2021/03/10 02:54:06;;;;;;;19.35;13.35;;;5.60;99.90;;;;;;5081988;28;20638;-74
2021/03/10 02:56:36;;;;;;;17.52;10.85;;;5.60;99.90;;;;;;5073376;28;20197;-75
2021/03/10 02:59:02;;;;;;;20.20;12.38;;;5.60;99.90;;;;;;5083006;28;20250;-76
2021/03/10 03:01:29;;;;;;;17.40;11.40;;;5.60;99.90;;;;;;5080659;28;20612;-76
2021/03/10 03:03:56;;;;;;;16.83;11.50;;;5.50;99.90;;;;;;5079145;28;20247;-75
2021/03/10 03:06:23;;;;;;;18.83;11.45;;;5.50;99.90;;;;;;5083608;28;20205;-76
2021/03/10 03:08:49;;;;;;;17.08;11.48;;;5.50;99.90;;;;;;5077927;28;20254;-76
2021/03/10 03:11:16;;;;;;;18.27;12.20;;;5.40;99.90;;;;;;5067060;28;20232;-75
2021/03/10 03:13:43;;;;;;;21.20;11.85;;;5.30;99.90;;;;;;5074499;28;20217;-75
2021/03/10 03:16:10;;;;;;;20.63;11.38;;;5.30;99.90;;;;;;5071975;28;20203;-75
2021/03/10 03:18:36;;;;;;;19.90;11.60;;;5.10;99.90;;;;;;5077859;28;20227;-75
2021/03/10 03:21:05;;;;;;;17.35;12.07;;;5.10;99.90;;;;;;5071741;28;20227;-74
2021/03/10 03:23:32;;;;;;;18.15;11.57;;;5.00;99.90;;;;;;5078780;28;20201;-74
2021/03/10 03:25:59;;;;;;;22.85;12.07;;;5.00;99.90;;;;;;5077421;28;20232;-74
2021/03/10 03:28:27;;;;;;;19.83;12.05;;;5.00;99.90;;;;;;5071718;28;20193;-74
2021/03/10 03:30:55;;;;;;;22.17;11.15;;;4.90;99.90;;;;;;5074551;28;20257;-74
2021/03/10 03:33:25;;;;;;;19.42;11.07;;;4.80;99.90;;;;;;5082144;28;20207;-74
2021/03/10 03:35:55;;;;;;;24.00;11.85;;;4.80;99.90;;;;;;5080348;28;20220;-74
2021/03/10 03:38:23;;;;;;;18.75;12.35;;;4.70;99.90;;;;;;5078724;28;20211;-74
2021/03/10 03:40:50;;;;;;;21.88;12.65;;;4.60;99.90;;;;;;5074329;28;20201;-74
2021/03/10 03:43:18;;;;;;;16.83;10.70;;;4.60;99.90;;;;;;5078421;28;20224;-74
2021/03/10 03:45:45;;;;;;;19.80;10.43;;;4.60;99.90;;;;;;5067582;28;20235;-74
2021/03/10 03:48:12;;;;;;;19.98;10.93;;;4.60;99.90;;;;;;5080775;28;20587;-74
2021/03/10 03:50:40;;;;;;;17.38;11.95;;;4.60;99.90;;;;;;5087419;28;20208;-74
2021/03/10 03:53:07;;;;;;;22.45;14.05;;;4.50;99.90;;;;;;5082099;28;20609;-74
2021/03/10 03:55:35;;;;;;;17.08;12.25;;;4.60;99.90;;;;;;5076458;28;20201;-74
2021/03/10 03:58:02;;;;;;;16.85;12.35;;;4.50;99.90;;;;;;5079507;28;20233;-74
2021/03/10 04:00:28;;;;;;;19.65;11.38;;;4.50;99.90;;;;;;5070157;28;20220;-74
2021/03/10 04:02:55;;;;;;;22.58;13.00;;;4.50;99.90;;;;;;5077503;28;20232;-74
2021/03/10 04:05:22;;;;;;;20.38;12.68;;;4.50;99.90;;;;;;5073168;28;20228;-74
2021/03/10 04:07:50;;;;;;;21.60;12.65;;;4.60;99.90;;;;;;5083470;28;20222;-74
2021/03/10 04:10:17;;;;;;;25.45;12.13;;;4.70;99.90;;;;;;5076546;28;20210;-74
2021/03/10 04:12:45;;;;;;;21.88;13.30;;;4.70;99.90;;;;;;5076606;28;20266;-74
2021/03/10 04:15:13;;;;;;;18.30;11.77;;;4.70;99.90;;;;;;5069694;28;20206;-74
2021/03/10 04:17:40;;;;;;;20.48;13.40;;;4.60;99.90;;;;;;5068915;28;20205;-74
2021/03/10 04:20:09;;;;;;;19.83;12.43;;;4.60;99.90;;;;;;5073815;28;20223;-74
2021/03/10 04:22:36;;;;;;;21.60;13.00;;;4.60;99.90;;;;;;5086409;28;20196;-74
2021/03/10 04:25:04;;;;;;;19.67;11.85;;;4.60;99.90;;;;;;5080987;28;20228;-74
2021/03/10 04:27:30;;;;;;;23.50;12.15;;;4.60;99.90;;;;;;5083070;28;20201;-74
2021/03/10 04:29:58;;;;;;;21.27;13.10;;;4.60;99.90;;;;;;5078509;28;20252;-74
2021/03/10 04:32:24;;;;;;;27.13;12.63;;;4.60;99.90;;;;;;5084761;28;20200;-74
2021/03/10 04:34:51;;;;;;;20.30;11.75;;;4.70;99.90;;;;;;5085463;28;20205;-74
2021/03/10 04:37:17;;;;;;;19.45;12.65;;;4.70;99.90;;;;;;5075338;28;20197;-75
2021/03/10 04:39:44;;;;;;;20.05;12.95;;;4.60;99.90;;;;;;5080114;28;20200;-75
2021/03/10 04:42:10;;;;;;;20.17;12.00;;;4.60;99.90;;;;;;5083087;28;20231;-75
2021/03/10 04:44:37;;;;;;;19.98;12.38;;;4.60;99.90;;;;;;5074924;28;20716;-75
2021/03/10 04:47:05;;;;;;;19.80;11.50;;;4.60;99.90;;;;;;5069498;28;20193;-74
2021/03/10 04:49:31;;;;;;;19.65;11.80;;;4.60;99.90;;;;;;5072849;28;20201;-75
2021/03/10 04:51:58;;;;;;;17.15;11.07;;;4.60;99.90;;;;;;5076826;28;20204;-74
2021/03/10 04:54:25;;;;;;;19.40;10.73;;;4.60;99.90;;;;;;5075619;28;20205;-71
2021/03/10 04:56:52;;;;;;;16.50;11.52;;;4.50;99.90;;;;;;5076871;28;20300;-74
2021/03/10 04:59:18;;;;;;;20.05;12.35;;;4.50;99.90;;;;;;5075612;28;20208;-74
2021/03/10 05:01:45;;;;;;;14.13;9.32;;;4.50;99.90;;;;;;5078285;28;20204;-74
2021/03/10 05:04:12;;;;;;;16.52;10.18;;;4.40;99.90;;;;;;5081494;28;20232;-74
2021/03/10 05:06:39;;;;;;;18.77;11.68;;;4.40;99.90;;;;;;5074067;28;20201;-74
2021/03/10 05:09:06;;;;;;;15.95;10.95;;;4.30;99.90;;;;;;5078148;28;20202;-74
2021/03/10 05:11:32;;;;;;;16.50;10.82;;;4.30;99.90;;;;;;5078435;28;20224;-74
2021/03/10 05:13:59;;;;;;;16.30;11.68;;;4.40;99.90;;;;;;5080126;28;20216;-74
2021/03/10 05:16:26;;;;;;;18.13;11.38;;;4.40;99.90;;;;;;5076815;28;20253;-74
2021/03/10 05:18:52;;;;;;;17.33;11.35;;;4.50;99.90;;;;;;5077226;28;20208;-74
2021/03/10 05:21:19;;;;;;;17.45;11.70;;;4.60;99.90;;;;;;5072981;28;20201;-74
2021/03/10 05:23:46;;;;;;;19.42;10.90;;;4.60;99.90;;;;;;5077136;28;20231;-75
2021/03/10 05:26:13;;;;;;;30.98;18.20;;;4.70;99.90;;;;;;5075596;28;20259;-75
2021/03/10 05:28:41;;;;;;;40.63;20.92;;;4.70;99.90;;;;;;5069282;28;20271;-74
2021/03/10 05:31:08;;;;;;;22.05;13.43;;;4.80;99.90;;;;;;5071735;28;20201;-74
2021/03/10 05:33:35;;;;;;;19.55;12.02;;;4.90;99.90;;;;;;5082496;28;20207;-75
2021/03/10 05:36:03;;;;;;;20.17;11.48;;;4.90;99.90;;;;;;5076720;28;20197;-74
2021/03/10 05:38:31;;;;;;;16.23;11.40;;;4.90;99.90;;;;;;5074473;28;20201;-74
2021/03/10 05:40:58;;;;;;;16.77;11.57;;;4.90;99.90;;;;;;5073094;28;20259;-75
2021/03/10 05:43:25;;;;;;;17.58;11.35;;;4.90;99.90;;;;;;5079149;28;20227;-74
2021/03/10 05:45:52;;;;;;;16.40;11.02;;;4.90;99.90;;;;;;5078712;28;20232;-74
2021/03/10 05:48:18;;;;;;;19.35;11.05;;;5.00;99.90;;;;;;5075905;28;20208;-74
2021/03/10 05:50:45;;;;;;;26.23;13.10;;;5.10;99.90;;;;;;5071926;28;20223;-74
2021/03/10 05:53:13;;;;;;;24.02;13.20;;;5.10;99.90;;;;;;5070437;28;20282;-74
2021/03/10 05:55:40;;;;;;;18.08;12.68;;;5.20;99.90;;;;;;5085414;28;20223;-74
2021/03/10 05:58:13;;;;;;;19.25;12.57;;;5.30;99.90;;;;;;5076930;28;20208;-75
2021/03/10 06:00:43;;;;;;;22.15;13.85;;;5.30;99.90;;;;;;5073319;28;20213;-74
2021/03/10 06:03:12;;;;;;;22.30;12.45;;;5.40;99.90;;;;;;5086500;28;20243;-74
2021/03/10 06:05:38;;;;;;;20.80;13.43;;;5.40;99.90;;;;;;5088354;28;20247;-74
2021/03/10 06:08:07;;;;;;;16.65;12.32;;;5.50;99.90;;;;;;5079873;28;20204;-74
2021/03/10 06:10:42;;;;;;;20.95;12.77;;;5.50;99.90;;;;;;5071060;28;20224;-75
2021/03/10 06:13:19;;;;;;;19.73;12.82;;;5.50;99.90;;;;;;5073090;28;20205;-75
2021/03/10 06:15:46;;;;;;;19.70;11.88;;;5.50;99.90;;;;;;5075907;28;20204;-75
2021/03/10 06:18:22;;;;;;;21.50;13.13;;;5.50;99.90;;;;;;5080015;28;20232;-74
2021/03/10 06:20:49;;;;;;;18.60;12.43;;;5.60;99.90;;;;;;5077519;28;20211;-75
2021/03/10 06:23:17;;;;;;;18.33;12.15;;;5.60;99.90;;;;;;5079590;28;20201;-75
2021/03/10 06:25:44;;;;;;;21.13;13.13;;;5.70;99.90;;;;;;5075758;28;20622;-74
2021/03/10 06:28:11;;;;;;;19.33;12.57;;;5.70;99.90;;;;;;5080912;28;20200;-74
2021/03/10 06:30:40;;;;;;;22.63;14.00;;;5.80;99.90;;;;;;5078436;28;20216;-74
2021/03/10 06:33:08;;;;;;;21.80;13.68;;;5.80;99.90;;;;;;5081883;28;20215;-75
2021/03/10 06:35:35;;;;;;;20.02;13.63;;;5.80;99.90;;;;;;5072001;28;20254;-75
2021/03/10 06:38:09;;;;;;;26.70;13.63;;;5.80;99.90;;;;;;5077393;28;20205;-75
2021/03/10 06:40:51;;;;;;;24.65;14.15;;;5.90;99.90;;;;;;5077260;28;20207;-75
2021/03/10 06:43:18;;;;;;;22.63;14.35;;;5.90;99.90;;;;;;5071930;28;20202;-75
2021/03/10 06:45:46;;;;;;;26.13;14.95;;;5.90;99.90;;;;;;5071710;28;20228;-78
2021/03/10 06:48:20;;;;;;;25.42;13.90;;;5.90;99.90;;;;;;5094320;28;20208;-74
2021/03/10 06:50:47;;;;;;;20.15;12.90;;;6.00;99.90;;;;;;5083647;28;20671;-74
2021/03/10 06:53:15;;;;;;;26.70;16.58;;;6.00;99.90;;;;;;5089611;28;20208;-74
2021/03/10 06:55:44;;;;;;;26.45;16.40;;;6.00;99.90;;;;;;5087535;28;20281;-74
2021/03/10 06:58:21;;;;;;;25.83;14.57;;;6.10;99.90;;;;;;5087481;28;20196;-74
2021/03/10 07:00:59;;;;;;;26.35;13.82;;;6.20;99.90;;;;;;5099622;28;20196;-74
2021/03/10 07:03:26;;;;;;;24.65;14.05;;;6.20;99.90;;;;;;5088126;28;20230;-74
2021/03/10 07:05:54;;;;;;;25.20;14.38;;;6.30;99.90;;;;;;5098158;28;20250;-74
2021/03/10 07:08:22;;;;;;;26.83;15.55;;;6.40;99.90;;;;;;5090765;28;20208;-76
2021/03/10 07:10:49;;;;;;;27.73;16.15;;;6.50;99.90;;;;;;5089225;28;20210;-73
2021/03/10 07:13:17;;;;;;;29.75;13.93;;;6.50;99.90;;;;;;5097798;28;20663;-73
2021/03/10 07:15:44;;;;;;;22.95;15.32;;;6.50;99.90;;;;;;5087498;28;20209;-75
2021/03/10 07:18:13;;;;;;;27.25;14.80;;;6.50;99.90;;;;;;5089895;28;20201;-75
2021/03/10 07:20:44;;;;;;;29.30;15.70;;;6.50;99.90;;;;;;5093992;28;20211;-75
2021/03/10 07:23:13;;;;;;;26.40;16.55;;;6.50;99.90;;;;;;5095139;28;20215;-75
2021/03/10 07:25:44;;;;;;;24.55;15.40;;;6.50;99.90;;;;;;5098969;28;20224;-75
2021/03/10 07:28:14;;;;;;;22.83;14.65;;;6.60;99.90;;;;;;5100380;28;20205;-75
2021/03/10 07:30:44;;;;;;;24.17;14.38;;;6.50;99.90;;;;;;5093082;28;20205;-74
2021/03/10 07:33:13;;;;;;;22.67;14.65;;;6.50;99.90;;;;;;5090513;28;20252;-75
2021/03/10 07:35:50;;;;;;;26.88;16.48;;;6.50;99.90;;;;;;5091275;28;20200;-74
2021/03/10 07:38:17;;;;;;;28.67;16.10;;;6.40;99.90;;;;;;5098793;28;20228;-74
2021/03/10 07:40:58;;;;;;;28.25;15.75;;;6.40;99.90;;;;;;5090714;28;20213;-74
2021/03/10 07:43:39;;;;;;;27.35;16.58;;;6.50;99.90;;;;;;5087796;28;20208;-74
2021/03/10 07:46:18;;;;;;;27.63;16.33;;;6.50;99.90;;;;;;5087425;28;20227;-75
2021/03/10 07:48:44;;;;;;;26.95;15.25;;;6.50;99.90;;;;;;5099795;28;20230;-75
2021/03/10 07:51:22;;;;;;;28.88;16.65;;;6.50;99.90;;;;;;5104228;28;20199;-75
2021/03/10 07:53:48;;;;;;;26.48;17.15;;;6.60;99.90;;;;;;5096908;28;20226;-75
2021/03/10 07:56:23;;;;;;;28.48;17.15;;;6.70;99.90;;;;;;5101566;28;20203;-75
2021/03/10 07:58:50;;;;;;;32.97;18.45;;;6.70;99.90;;;;;;5086540;28;22208;-75
2021/03/10 08:01:17;;;;;;;33.88;18.77;;;6.70;99.90;;;;;;5094311;28;20209;-75
2021/03/10 08:03:44;;;;;;;30.02;16.95;;;6.70;99.90;;;;;;5090548;28;20239;-75
2021/03/10 08:06:12;;;;;;;28.95;17.13;;;6.70;99.90;;;;;;5096317;28;20223;-75
2021/03/10 08:08:40;;;;;;;27.95;16.65;;;6.80;99.90;;;;;;5097646;28;20236;-74
2021/03/10 08:11:12;;;;;;;30.25;17.25;;;6.80;99.90;;;;;;5093034;28;20233;-74
2021/03/10 08:13:39;;;;;;;28.67;16.90;;;6.80;99.90;;;;;;5096483;28;20204;-75
2021/03/10 08:16:07;;;;;;;28.75;17.48;;;6.80;99.90;;;;;;5100747;28;20196;-75
2021/03/10 08:18:36;;;;;;;32.47;18.15;;;6.90;99.90;;;;;;5099047;28;20203;-75
2021/03/10 08:21:11;;;;;;;32.35;19.13;;;7.00;99.90;;;;;;5094707;28;20204;-75
2021/03/10 08:23:38;;;;;;;35.67;17.52;;;7.10;99.90;;;;;;5097470;28;20207;-75
2021/03/10 08:26:06;;;;;;;32.78;18.98;;;7.20;99.90;;;;;;5101118;28;20629;-75
2021/03/10 08:28:34;;;;;;;32.15;18.50;;;7.30;99.90;;;;;;5094271;28;20224;-75
2021/03/10 08:31:02;;;;;;;34.83;19.70;;;7.30;99.90;;;;;;5095590;28;20208;-75
2021/03/10 08:33:29;;;;;;;31.98;18.08;;;7.40;99.90;;;;;;5092265;28;21071;-75
2021/03/10 08:35:56;;;;;;;33.25;18.50;;;7.40;99.90;;;;;;5094976;28;20212;-75
2021/03/10 08:38:23;;;;;;;40.25;19.95;;;7.40;99.90;;;;;;5089587;28;20196;-75
2021/03/10 08:40:50;;;;;;;35.47;19.77;;;7.40;99.90;;;;;;5093652;28;20228;-75
2021/03/10 08:43:18;;;;;;;32.80;19.65;;;7.50;99.90;;;;;;5100919;28;20204;-75
2021/03/10 08:45:45;;;;;;;30.08;17.95;;;7.60;99.90;;;;;;5091277;28;20221;-75
2021/03/10 08:48:14;;;;;;;33.28;18.95;;;7.60;99.90;;;;;;5086065;28;20195;-75
2021/03/10 08:50:42;;;;;;;38.30;21.27;;;7.80;99.90;;;;;;5085863;28;20200;-75
2021/03/10 08:53:11;;;;;;;37.15;20.83;;;7.70;99.90;;;;;;5089780;28;20212;-76
2021/03/10 08:55:38;;;;;;;37.65;20.67;;;7.80;99.90;;;;;;5098367;28;20205;-75
2021/03/10 08:58:10;;;;;;;44.90;21.65;;;7.80;99.90;;;;;;5096557;28;20195;-75
2021/03/10 09:00:38;;;;;;;38.92;21.42;;;7.80;99.90;;;;;;5094081;28;20204;-75
2021/03/10 09:03:12;;;;;;;36.70;19.95;;;8.00;99.90;;;;;;5089176;28;20254;-75
2021/03/10 09:05:39;;;;;;;35.30;18.88;;;8.10;99.90;;;;;;5086032;28;20223;-75
2021/03/10 09:08:07;;;;;;;33.90;20.50;;;8.30;99.90;;;;;;5094831;28;20203;-75
2021/03/10 09:10:35;;;;;;;37.63;19.80;;;8.30;99.90;;;;;;5086979;28;20211;-76
2021/03/10 09:13:03;;;;;;;44.28;20.38;;;8.40;99.90;;;;;;5090953;28;20253;-75
2021/03/10 09:15:31;;;;;;;43.20;20.92;;;8.50;99.90;;;;;;5102506;28;20253;-75
2021/03/10 09:18:02;;;;;;;46.92;21.60;;;8.50;99.90;;;;;;5091282;28;20204;-75
2021/03/10 09:20:31;;;;;;;34.72;21.10;;;8.60;99.90;;;;;;5088983;28;20196;-75
2021/03/10 09:22:58;;;;;;;40.92;21.60;;;8.80;99.90;;;;;;5094575;28;20205;-75
2021/03/10 09:25:26;;;;;;;46.00;21.95;;;8.90;99.90;;;;;;5094446;28;20589;-76
2021/03/10 09:28:04;;;;;;;37.95;21.50;;;8.90;99.90;;;;;;5090059;28;20230;-76
2021/03/10 09:30:32;;;;;;;39.00;21.52;;;9.00;99.90;;;;;;5096614;28;20196;-75
2021/03/10 09:33:03;;;;;;;41.05;22.25;;;9.20;99.90;;;;;;5096126;28;20200;-75
2021/03/10 09:35:32;;;;;;;40.97;22.05;;;9.40;99.90;;;;;;5085636;28;20208;-75
2021/03/10 09:38:00;;;;;;;40.08;22.65;;;9.40;99.90;;;;;;5089475;28;20204;-75
2021/03/10 09:40:38;;;;;;;52.97;22.75;;;9.40;99.90;;;;;;5082207;28;20197;-75
2021/03/10 09:43:08;;;;;;;48.15;23.83;;;9.40;99.90;;;;;;5090730;28;20236;-75
2021/03/10 09:45:37;;;;;;;40.78;23.00;;;9.40;99.90;;;;;;5100217;28;20269;-75
2021/03/10 09:48:05;;;;;;;49.40;25.85;;;9.50;99.90;;;;;;5084960;28;20200;-75
2021/03/10 09:50:34;;;;;;;48.35;22.70;;;9.60;99.90;;;;;;5083145;28;20192;-75
2021/03/10 09:53:11;;;;;;;44.08;23.80;;;9.60;99.90;;;;;;5091696;28;20230;-75
2021/03/10 09:55:38;;;;;;;41.25;23.33;;;9.60;99.90;;;;;;5088499;28;20196;-75
2021/03/10 09:58:06;;;;;;;44.22;24.33;;;9.70;99.90;;;;;;5085163;28;20201;-75
2021/03/10 10:00:33;;;;;;;42.42;24.30;;;9.80;99.90;;;;;;5090295;28;20203;-75
2021/03/10 10:03:00;;;;;;;41.75;23.45;;;9.70;99.90;;;;;;5091423;28;20236;-75
2021/03/10 10:05:29;;;;;;;44.85;23.42;;;9.80;99.90;;;;;;5079968;28;20254;-75
2021/03/10 10:07:57;;;;;;;41.55;23.25;;;9.90;99.90;;;;;;5097097;28;20196;-75
2021/03/10 10:10:24;;;;;;;40.58;22.92;;;10.00;99.90;;;;;;5089143;28;20208;-76
2021/03/10 10:12:53;;;;;;;46.47;26.52;;;10.10;99.90;;;;;;5084267;28;20230;-75
2021/03/10 10:15:22;;;;;;;43.17;22.48;;;10.30;99.90;;;;;;5089199;28;20220;-75
2021/03/10 10:17:50;;;;;;;38.28;23.15;;;10.50;99.90;;;;;;5088931;28;20660;-76
2021/03/10 10:20:18;;;;;;;42.03;25.05;;;10.60;99.90;;;;;;5088843;28;20197;-76
2021/03/10 10:22:46;;;;;;;42.35;23.63;;;10.70;99.90;;;;;;5090980;28;20254;-75
2021/03/10 10:25:13;;;;;;;41.25;24.10;;;10.80;99.90;;;;;;5087590;28;20234;-76
2021/03/10 10:27:40;;;;;;;42.78;23.65;;;10.80;99.90;;;;;;5092311;28;20570;-77
2021/03/10 10:30:08;;;;;;;42.90;23.13;;;10.90;99.90;;;;;;5091344;28;20196;-77
2021/03/10 10:32:35;;;;;;;38.40;23.63;;;10.90;99.90;;;;;;5088548;28;20200;-76
2021/03/10 10:35:02;;;;;;;38.05;21.67;;;10.90;99.90;;;;;;5089762;28;20205;-75
2021/03/10 10:37:28;;;;;;;38.40;22.33;;;10.70;99.90;;;;;;5084371;28;20209;-76
2021/03/10 10:39:55;;;;;;;43.63;21.35;;;10.80;99.90;;;;;;5095574;28;20204;-75
2021/03/10 10:42:21;;;;;;;41.72;22.67;;;11.00;99.90;;;;;;5083014;28;20200;-75
2021/03/10 10:44:48;;;;;;;43.90;23.30;;;11.00;99.90;;;;;;5090208;28;20674;-76
2021/03/10 10:47:14;;;;;;;44.20;22.00;;;11.00;99.90;;;;;;5089164;28;20198;-76
2021/03/10 10:49:41;;;;;;;38.75;22.27;;;11.10;99.90;;;;;;5093967;28;20222;-75
2021/03/10 10:52:08;;;;;;;35.63;20.73;;;11.20;99.90;;;;;;5089824;28;20200;-74
2021/03/10 10:54:35;;;;;;;36.22;20.88;;;11.10;99.90;;;;;;5092588;28;20208;-75
2021/03/10 10:57:01;;;;;;;34.45;20.02;;;11.00;99.90;;;;;;5094637;28;20195;-75
2021/03/10 10:59:28;;;;;;;42.50;20.95;;;10.80;99.90;;;;;;5089203;28;20203;-76
2021/03/10 11:11:58;;;;;;;32.40;18.45;;;10.90;99.90;;;;;;5092662;28;20209;-75
2021/03/10 11:14:26;;;;;;;32.33;18.05;;;10.80;99.90;;;;;;5090953;28;20204;-75
2021/03/10 11:16:56;;;;;;;38.55;20.58;;;10.90;99.90;;;;;;5088004;28;20564;-74
2021/03/10 11:19:22;;;;;;;34.42;20.63;;;10.90;99.90;;;;;;5087646;28;20205;-74
2021/03/10 11:21:49;;;;;;;34.47;19.48;;;10.90;99.90;;;;;;5081753;28;20214;-74
2021/03/10 11:24:16;;;;;;;33.75;19.52;;;10.90;99.90;;;;;;5086724;28;20249;-74
2021/03/10 11:29:23;;;;;;;33.95;19.55;;;11.40;99.90;;;;;;5085835;28;20208;-70
2021/03/10 11:31:51;;;;;;;34.90;18.67;;;11.50;99.90;;;;;;5085566;28;20570;-74
2021/03/10 11:34:17;;;;;;;33.60;19.15;;;11.60;99.90;;;;;;5087829;28;20221;-74
2021/03/10 11:36:45;;;;;;;31.98;18.67;;;11.70;99.90;;;;;;5088694;28;20222;-74
2021/03/10 11:39:12;;;;;;;34.03;19.60;;;11.80;99.90;;;;;;5082179;28;20197;-75
2021/03/10 11:41:38;;;;;;;33.47;18.02;;;11.90;99.90;;;;;;5095972;28;20196;-74
2021/03/10 11:44:06;;;;;;;31.10;17.40;;;11.90;99.90;;;;;;5085721;28;20220;-74
2021/03/10 11:46:33;;;;;;;29.83;17.00;;;11.90;99.90;;;;;;5088174;28;20206;-74
2021/03/10 11:49:01;;;;;;;25.00;16.25;;;11.90;99.90;;;;;;5088740;28;20260;-74
2021/03/10 11:51:28;;;;;;;28.73;15.93;;;11.90;99.90;;;;;;5086529;28;20202;-75
2021/03/10 11:53:54;;;;;;;28.95;15.80;;;11.90;99.90;;;;;;5088463;28;20689;-75
2021/03/10 11:56:21;;;;;;;27.92;14.93;;;11.90;99.90;;;;;;5088134;28;20208;-74
2021/03/10 11:58:48;;;;;;;30.10;15.25;;;12.00;99.90;;;;;;5086709;28;20251;-74
2021/03/10 12:01:14;;;;;;;26.27;14.15;;;12.10;99.90;;;;;;5092015;28;20214;-74
2021/03/10 12:03:41;;;;;;;24.50;14.63;;;12.10;99.90;;;;;;5082918;28;20244;-74
2021/03/10 12:06:09;;;;;;;25.60;15.45;;;12.10;99.90;;;;;;5081415;28;20208;-75
2021/03/10 12:08:35;;;;;;;27.63;15.52;;;12.00;99.90;;;;;;5084930;28;20201;-76
2021/03/10 12:11:02;;;;;;;27.05;15.43;;;12.00;99.90;;;;;;5083126;28;20201;-75
2021/03/10 12:13:29;;;;;;;21.42;13.80;;;12.00;99.90;;;;;;5085007;28;20226;-75
2021/03/10 12:15:55;;;;;;;25.83;14.43;;;12.10;99.90;;;;;;5074894;28;20264;-75
2021/03/10 12:18:22;;;;;;;22.45;13.80;;;12.20;99.90;;;;;;5067721;28;20211;-75
2021/03/10 12:20:49;;;;;;;28.65;14.98;;;12.10;99.90;;;;;;5074327;28;20205;-75
2021/03/10 12:23:16;;;;;;;23.08;13.98;;;12.00;99.90;;;;;;5077481;28;20251;-75
2021/03/10 12:25:43;;;;;;;23.92;13.75;;;12.00;99.90;;;;;;5073759;28;20206;-75
2021/03/10 12:28:10;;;;;;;24.83;14.15;;;12.10;99.90;;;;;;5071339;28;20197;-75
2021/03/10 12:30:37;;;;;;;26.08;14.20;;;12.10;99.90;;;;;;5067121;28;20197;-74
2021/03/10 12:33:06;;;;;;;25.27;14.35;;;12.10;99.90;;;;;;5072881;28;20312;-75
2021/03/10 12:35:33;;;;;;;23.88;12.90;;;12.00;99.90;;;;;;5070441;28;20202;-75
2021/03/10 12:38:00;;;;;;;23.95;13.55;;;12.10;99.90;;;;;;5068731;28;20205;-75
2021/03/10 12:40:28;;;;;;;27.67;13.13;;;12.10;99.90;;;;;;5069250;28;20234;-76
2021/03/10 12:42:55;;;;;;;23.20;12.88;;;12.20;99.90;;;;;;5075295;28;20217;-76
2021/03/10 12:45:22;;;;;;;21.08;12.63;;;12.20;99.90;;;;;;5071405;28;20198;-76
2021/03/10 12:47:49;;;;;;;23.65;11.43;;;12.10;99.90;;;;;;5072053;28;20255;-75
2021/03/10 12:50:16;;;;;;;17.50;11.05;;;12.20;99.90;;;;;;5070972;28;20209;-75
2021/03/10 12:52:42;;;;;;;22.25;12.13;;;12.30;99.90;;;;;;5068486;28;20205;-75